createdAt,value
2018-07-07T00:01:02.649Z,21.70
2018-07-07T00:06:06.656Z,21.70
2018-07-07T00:11:10.656Z,21.90
2018-07-07T00:16:14.647Z,22.00
2018-07-07T00:26:22.286Z,22.40
2018-07-07T00:36:29.942Z,21.40
2018-07-07T00:46:37.591Z,21.20
2018-07-07T00:51:41.650Z,21.00
2018-07-07T00:56:45.671Z,20.90
2018-07-07T01:01:49.671Z,20.70
2018-07-07T01:06:53.659Z,20.50
2018-07-07T01:11:57.651Z,20.20
2018-07-07T01:17:01.760Z,20.30
2018-07-07T01:22:07.902Z,20.40
2018-07-07T01:32:16.416Z,20.40
2018-07-07T01:37:20.446Z,20.30
2018-07-07T01:42:24.460Z,20.60
2018-07-07T01:47:28.461Z,20.40
2018-07-07T01:52:32.584Z,20.60
2018-07-07T01:57:36.580Z,20.80
2018-07-07T02:02:40.571Z,21.00
2018-07-07T02:07:44.589Z,20.90
2018-07-07T02:17:53.094Z,21.20
2018-07-07T02:22:57.089Z,21.40
2018-07-07T02:28:01.111Z,21.70
2018-07-07T02:33:05.246Z,21.80
2018-07-07T02:38:09.511Z,21.70
2018-07-07T02:43:13.503Z,21.70
2018-07-07T02:48:17.529Z,21.60
2018-07-07T02:53:21.564Z,21.30
2018-07-07T02:58:25.606Z,20.90
2018-07-07T03:03:29.609Z,20.90
2018-07-07T03:08:33.603Z,21.10
2018-07-07T03:13:37.615Z,21.20
2018-07-07T03:18:41.626Z,21.00
2018-07-07T03:23:45.622Z,20.90
2018-07-07T03:28:49.624Z,20.50
2018-07-07T03:33:53.658Z,20.20
2018-07-07T03:38:57.843Z,19.90
2018-07-07T03:44:01.850Z,19.90
2018-07-07T03:54:09.545Z,20.10
2018-07-07T03:59:13.538Z,19.90
2018-07-07T04:14:24.783Z,19.60
2018-07-07T04:24:32.387Z,19.90
2018-07-07T04:29:36.400Z,19.70
2018-07-07T04:34:40.428Z,19.90
2018-07-07T04:39:44.437Z,20.20
2018-07-07T04:44:48.436Z,20.30
2018-07-07T04:49:52.432Z,20.60
2018-07-07T04:54:56.451Z,20.60
2018-07-07T05:00:00.476Z,20.80
2018-07-07T05:05:04.480Z,20.60
2018-07-07T05:10:08.499Z,21.00
2018-07-07T05:15:12.560Z,21.50
2018-07-07T05:20:16.673Z,21.80
2018-07-07T05:25:20.700Z,22.10
2018-07-07T05:30:24.781Z,22.50
2018-07-07T05:35:28.797Z,22.90
2018-07-07T05:40:32.804Z,23.20
2018-07-07T05:45:36.806Z,23.40
2018-07-07T05:50:40.842Z,23.60
2018-07-07T05:55:44.859Z,23.80
2018-07-07T06:00:48.861Z,23.80
2018-07-07T06:05:52.848Z,23.80
2018-07-07T06:10:56.844Z,24.30
2018-07-07T06:16:00.819Z,24.70
2018-07-07T06:21:04.827Z,25.00
2018-07-07T06:26:08.819Z,25.30
2018-07-07T06:31:12.825Z,25.50
2018-07-07T06:36:16.860Z,25.50
2018-07-07T06:41:21.814Z,25.70
2018-07-07T06:46:25.828Z,26.10
2018-07-07T06:51:29.803Z,26.30
2018-07-07T06:56:34.598Z,26.80
2018-07-07T07:01:38.610Z,27.20
2018-07-07T07:06:42.596Z,27.70
2018-07-07T07:11:46.595Z,27.70
2018-07-07T07:16:50.619Z,27.80
2018-07-07T07:21:54.745Z,28.20
2018-07-07T07:26:58.758Z,28.70
2018-07-07T07:32:02.769Z,28.70
2018-07-07T07:37:06.757Z,29.20
2018-07-07T07:42:10.797Z,29.60
2018-07-07T07:47:14.813Z,29.90
2018-07-07T07:52:18.937Z,30.50
2018-07-07T07:57:22.954Z,30.20
2018-07-07T08:07:30.950Z,31.90
2018-07-07T08:12:34.940Z,31.70
2018-07-07T08:22:42.654Z,32.30
2018-07-07T08:32:50.176Z,32.40
2018-07-07T08:37:54.308Z,32.10
2018-07-07T08:42:59.138Z,33.50
2018-07-07T08:53:06.929Z,33.00
2018-07-07T08:58:10.899Z,33.50
2018-07-07T09:03:14.891Z,33.30
2018-07-07T09:08:19.915Z,34.00
2018-07-07T09:13:23.897Z,33.70
2018-07-07T09:18:27.897Z,33.40
2018-07-07T09:23:31.910Z,33.10
2018-07-07T09:28:35.923Z,31.90
2018-07-07T09:33:39.907Z,32.30
2018-07-07T09:38:43.965Z,32.70
2018-07-07T09:43:48.136Z,32.20
2018-07-07T09:48:52.133Z,32.40
2018-07-07T09:58:59.736Z,33.60
2018-07-07T10:04:03.735Z,34.50
2018-07-07T10:09:08.568Z,35.90
2018-07-07T10:14:12.574Z,34.30
2018-07-07T10:19:16.555Z,34.50
2018-07-07T10:24:20.576Z,35.30
2018-07-07T10:29:24.575Z,34.10
2018-07-07T10:34:28.593Z,33.90
2018-07-07T10:44:36.319Z,35.50
2018-07-07T10:54:45.234Z,34.60
2018-07-07T10:59:49.281Z,34.80
2018-07-07T11:04:53.281Z,34.40
2018-07-07T11:09:57.286Z,35.10
2018-07-07T11:15:01.271Z,35.10
2018-07-07T11:20:05.557Z,34.40
2018-07-07T11:25:09.554Z,35.20
2018-07-07T11:30:13.552Z,35.10
2018-07-07T11:35:17.574Z,36.10
2018-07-07T11:40:21.558Z,35.60
2018-07-07T11:45:25.653Z,35.20
2018-07-07T11:50:29.737Z,35.30
2018-07-07T11:55:33.680Z,35.00
2018-07-07T12:00:37.676Z,36.50
2018-07-07T12:05:41.684Z,36.20
2018-07-07T12:10:45.696Z,36.10
2018-07-07T12:15:49.704Z,35.50
2018-07-07T12:20:53.709Z,36.00
2018-07-07T12:25:57.662Z,35.90
2018-07-07T12:31:01.679Z,35.80
2018-07-07T12:36:05.679Z,36.90
2018-07-07T12:41:09.690Z,37.40
2018-07-07T12:46:13.691Z,36.80
2018-07-07T12:51:17.674Z,36.80
2018-07-07T12:56:21.666Z,36.70
2018-07-07T13:01:25.675Z,36.70
2018-07-07T13:06:29.655Z,36.60
2018-07-07T13:11:33.698Z,36.80
2018-07-07T13:16:37.690Z,37.10
2018-07-07T13:21:41.780Z,36.00
2018-07-07T13:26:45.769Z,35.90
2018-07-07T13:31:50.035Z,36.70
2018-07-07T13:36:54.127Z,36.60
2018-07-07T13:41:58.148Z,37.10
2018-07-07T13:47:02.178Z,36.90
2018-07-07T13:52:06.429Z,36.90
2018-07-07T13:57:10.408Z,36.70
2018-07-07T14:02:14.708Z,36.40
2018-07-07T14:07:18.731Z,36.50
2018-07-07T14:12:22.762Z,36.60
2018-07-07T14:17:26.749Z,34.50
2018-07-07T14:23:33.829Z,35.70
2018-07-07T14:28:37.835Z,36.40
2018-07-07T14:33:41.807Z,36.50
2018-07-07T14:38:45.794Z,36.90
2018-07-07T14:43:55.728Z,35.90
2018-07-07T14:48:59.755Z,36.10
2018-07-07T14:54:03.756Z,36.00
2018-07-07T14:59:07.847Z,36.00
2018-07-07T15:04:11.831Z,35.50
2018-07-07T15:09:15.842Z,35.70
2018-07-07T15:14:19.851Z,35.90
2018-07-07T15:19:24.059Z,36.00
2018-07-07T15:24:28.081Z,35.40
2018-07-07T15:29:32.206Z,35.80
2018-07-07T15:34:36.224Z,35.40
2018-07-07T15:39:40.339Z,35.20
2018-07-07T15:44:44.365Z,35.40
2018-07-07T15:49:48.387Z,34.90
2018-07-07T15:54:52.409Z,34.90
2018-07-07T15:59:56.437Z,34.30
2018-07-07T16:05:00.461Z,33.90
2018-07-07T16:10:04.815Z,33.80
2018-07-07T16:15:08.819Z,33.30
2018-07-07T16:20:12.820Z,33.50
2018-07-07T16:25:16.818Z,33.90
2018-07-07T16:30:20.855Z,33.50
2018-07-07T16:35:24.923Z,33.20
2018-07-07T16:40:28.906Z,33.50
2018-07-07T16:45:32.899Z,33.30
2018-07-07T16:50:37.102Z,33.30
2018-07-07T16:55:41.117Z,33.00
2018-07-07T17:00:45.780Z,33.00
2018-07-07T17:05:49.773Z,32.50
2018-07-07T17:10:53.805Z,31.10
2018-07-07T17:15:57.795Z,30.50
2018-07-07T17:21:01.844Z,30.20
2018-07-07T17:26:06.410Z,30.10
2018-07-07T17:31:10.395Z,29.80
2018-07-07T17:36:14.499Z,29.50
2018-07-07T17:41:18.464Z,29.50
2018-07-07T17:46:22.523Z,29.30
2018-07-07T17:51:27.161Z,29.20
2018-07-07T17:56:31.203Z,29.20
2018-07-07T18:01:35.444Z,29.30
2018-07-07T18:11:43.161Z,29.10
2018-07-07T18:16:47.119Z,29.00
2018-07-07T18:21:51.123Z,28.70
2018-07-07T18:26:55.139Z,28.40
2018-07-07T18:31:59.247Z,28.20
2018-07-07T18:37:03.202Z,27.90
2018-07-07T18:42:07.372Z,27.70
2018-07-07T18:47:11.388Z,27.40
2018-07-07T18:52:15.447Z,27.20
2018-07-07T18:57:19.445Z,27.10
2018-07-07T19:02:23.428Z,26.90
2018-07-07T19:07:27.648Z,26.90
2018-07-07T19:12:31.665Z,26.70
2018-07-07T19:17:35.884Z,26.70
2018-07-07T19:23:45.458Z,26.50
2018-07-07T19:28:49.546Z,26.30
2018-07-07T19:33:58.911Z,26.10
2018-07-07T19:39:03.292Z,26.00
2018-07-07T19:44:07.307Z,26.00
2018-07-07T19:49:11.284Z,25.90
2018-07-07T19:54:15.471Z,25.70
2018-07-07T19:59:19.476Z,25.40
2018-07-07T20:04:23.467Z,25.40
2018-07-07T20:09:27.562Z,25.30
2018-07-07T20:14:32.326Z,25.10
2018-07-07T20:19:52.999Z,24.90
2018-07-07T20:24:57.010Z,24.90
2018-07-07T20:30:01.006Z,24.70
2018-07-07T20:35:05.052Z,24.60
2018-07-07T20:40:09.919Z,24.40
2018-07-07T20:45:14.032Z,24.30
2018-07-07T20:50:18.044Z,24.20
2018-07-07T20:55:22.184Z,24.10
2018-07-07T21:00:26.175Z,24.10
2018-07-07T21:05:30.321Z,24.00
2018-07-07T21:10:34.348Z,23.90
2018-07-07T21:15:38.484Z,23.80
2018-07-07T21:20:42.510Z,23.60
2018-07-07T21:25:46.531Z,23.40
2018-07-07T21:30:50.577Z,23.40
2018-07-07T21:35:54.576Z,23.40
2018-07-07T21:40:58.644Z,23.20
2018-07-07T21:46:02.658Z,23.40
2018-07-07T21:51:07.539Z,23.40
2018-07-07T21:56:11.583Z,23.30
2018-07-07T22:11:37.883Z,22.70
2018-07-07T22:21:57.055Z,22.80
2018-07-07T22:27:02.263Z,18.80
2018-07-07T22:32:22.810Z,22.20
2018-07-07T22:37:26.779Z,21.80
2018-07-07T22:42:30.791Z,22.00
2018-07-07T22:47:34.804Z,22.30
2018-07-07T22:52:38.818Z,22.20
2018-07-07T22:57:42.824Z,22.00
2018-07-07T23:02:46.813Z,22.20
2018-07-07T23:07:50.809Z,22.20
2018-07-07T23:12:54.791Z,22.10
2018-07-07T23:17:58.812Z,21.80
2018-07-07T23:23:02.803Z,21.70
2018-07-07T23:28:06.797Z,21.70
2018-07-07T23:33:10.788Z,21.50
2018-07-07T23:38:14.796Z,20.80
2018-07-07T23:43:18.798Z,20.60
2018-07-07T23:48:22.818Z,20.80
2018-07-07T23:53:26.850Z,20.90
